sensor_id;sensor_type;location;lat;lon;timestamp;P1;durP1;ratioP1;P2;durP2;ratioP2
3959;SDS011;1994;48.640;8.894;2023-06-22T00:02:17;6.80;;;6.10;;
3959;SDS011;1994;48.640;8.894;2023-06-22T00:04:43;5.47;;;4.97;;
3959;SDS011;1994;48.640;8.894;2023-06-22T00:07:09;6.47;;;5.80;;
3959;SDS011;1994;48.640;8.894;2023-06-22T00:09:35;8.10;;;5.67;;
3959;SDS011;1994;48.640;8.894;2023-06-22T00:12:01;9.40;;;6.20;;
3959;SDS011;1994;48.640;8.894;2023-06-22T00:14:27;5.97;;;5.43;;
3959;SDS011;1994;48.640;8.894;2023-06-22T00:16:53;7.03;;;6.23;;
3959;SDS011;1994;48.640;8.894;2023-06-22T00:19:24;8.17;;;5.83;;
3959;SDS011;1994;48.640;8.894;2023-06-22T00:21:50;7.30;;;6.60;;
3959;SDS011;1994;48.640;8.894;2023-06-22T00:24:19;7.10;;;6.50;;
3959;SDS011;1994;48.640;8.894;2023-06-22T00:26:46;11.03;;;7.10;;
3959;SDS011;1994;48.640;8.894;2023-06-22T00:29:13;7.43;;;5.90;;
3959;SDS011;1994;48.640;8.894;2023-06-22T00:31:39;7.50;;;6.47;;
3959;SDS011;1994;48.640;8.894;2023-06-22T00:34:04;7.07;;;6.37;;
3959;SDS011;1994;48.640;8.894;2023-06-22T00:36:31;8.17;;;6.63;;
3959;SDS011;1994;48.640;8.894;2023-06-22T00:38:57;5.90;;;5.40;;
3959;SDS011;1994;48.640;8.894;2023-06-22T00:41:23;7.10;;;6.43;;
3959;SDS011;1994;48.640;8.894;2023-06-22T00:43:49;7.03;;;6.40;;
3959;SDS011;1994;48.640;8.894;2023-06-22T00:46:15;6.97;;;6.03;;
3959;SDS011;1994;48.640;8.894;2023-06-22T00:48:41;8.77;;;6.60;;
3959;SDS011;1994;48.640;8.894;2023-06-22T00:51:08;9.47;;;7.30;;
3959;SDS011;1994;48.640;8.894;2023-06-22T00:53:35;8.60;;;7.00;;
3959;SDS011;1994;48.640;8.894;2023-06-22T00:56:02;8.00;;;6.70;;
3959;SDS011;1994;48.640;8.894;2023-06-22T00:58:30;11.40;;;6.60;;
3959;SDS011;1994;48.640;8.894;2023-06-22T01:00:56;7.03;;;6.43;;
3959;SDS011;1994;48.640;8.894;2023-06-22T01:03:23;7.03;;;6.43;;
3959;SDS011;1994;48.640;8.894;2023-06-22T01:05:48;8.43;;;6.90;;
3959;SDS011;1994;48.640;8.894;2023-06-22T01:08:20;6.30;;;5.63;;
3959;SDS011;1994;48.640;8.894;2023-06-22T01:11:11;7.90;;;5.83;;
3959;SDS011;1994;48.640;8.894;2023-06-22T01:14:06;7.30;;;5.23;;
3959;SDS011;1994;48.640;8.894;2023-06-22T01:16:44;6.40;;;5.77;;
3959;SDS011;1994;48.640;8.894;2023-06-22T01:21:43;8.70;;;6.53;;
3959;SDS011;1994;48.640;8.894;2023-06-22T01:29:25;7.83;;;7.03;;
3959;SDS011;1994;48.640;8.894;2023-06-22T01:31:54;7.37;;;6.60;;
3959;SDS011;1994;48.640;8.894;2023-06-22T01:34:21;7.43;;;6.60;;
3959;SDS011;1994;48.640;8.894;2023-06-22T01:36:48;7.67;;;6.87;;
3959;SDS011;1994;48.640;8.894;2023-06-22T01:39:15;8.70;;;5.97;;
3959;SDS011;1994;48.640;8.894;2023-06-22T01:41:41;5.87;;;5.33;;
3959;SDS011;1994;48.640;8.894;2023-06-22T01:44:08;9.23;;;6.40;;
3959;SDS011;1994;48.640;8.894;2023-06-22T01:46:34;7.60;;;6.90;;
3959;SDS011;1994;48.640;8.894;2023-06-22T01:49:01;5.73;;;5.00;;
3959;SDS011;1994;48.640;8.894;2023-06-22T01:51:29;7.93;;;6.23;;
3959;SDS011;1994;48.640;8.894;2023-06-22T01:53:55;8.53;;;6.63;;
3959;SDS011;1994;48.640;8.894;2023-06-22T01:56:21;6.13;;;5.53;;
3959;SDS011;1994;48.640;8.894;2023-06-22T01:58:51;7.17;;;6.53;;
3959;SDS011;1994;48.640;8.894;2023-06-22T02:01:42;8.27;;;6.10;;
3959;SDS011;1994;48.640;8.894;2023-06-22T02:04:20;7.97;;;6.60;;
3959;SDS011;1994;48.640;8.894;2023-06-22T02:06:51;5.90;;;5.40;;
3959;SDS011;1994;48.640;8.894;2023-06-22T02:09:23;6.23;;;5.63;;
3959;SDS011;1994;48.640;8.894;2023-06-22T02:11:53;7.20;;;6.37;;
3959;SDS011;1994;48.640;8.894;2023-06-22T02:14:21;6.50;;;5.90;;
3959;SDS011;1994;48.640;8.894;2023-06-22T02:16:49;6.30;;;5.80;;
3959;SDS011;1994;48.640;8.894;2023-06-22T02:19:17;9.20;;;7.10;;
3959;SDS011;1994;48.640;8.894;2023-06-22T02:21:47;11.50;;;6.67;;
3959;SDS011;1994;48.640;8.894;2023-06-22T02:24:12;6.93;;;6.23;;
3959;SDS011;1994;48.640;8.894;2023-06-22T02:26:38;6.70;;;6.00;;
3959;SDS011;1994;48.640;8.894;2023-06-22T02:29:07;7.03;;;6.53;;
3959;SDS011;1994;48.640;8.894;2023-06-22T02:31:33;6.77;;;6.17;;
3959;SDS011;1994;48.640;8.894;2023-06-22T02:33:59;8.50;;;6.53;;
3959;SDS011;1994;48.640;8.894;2023-06-22T02:36:25;6.80;;;6.27;;
3959;SDS011;1994;48.640;8.894;2023-06-22T02:38:52;8.10;;;7.30;;
3959;SDS011;1994;48.640;8.894;2023-06-22T02:41:19;6.30;;;5.70;;
3959;SDS011;1994;48.640;8.894;2023-06-22T02:43:45;8.27;;;6.13;;
3959;SDS011;1994;48.640;8.894;2023-06-22T02:46:11;7.80;;;6.63;;
3959;SDS011;1994;48.640;8.894;2023-06-22T02:48:41;9.63;;;8.80;;
3959;SDS011;1994;48.640;8.894;2023-06-22T02:51:06;8.60;;;6.67;;
3959;SDS011;1994;48.640;8.894;2023-06-22T02:53:33;9.90;;;6.30;;
3959;SDS011;1994;48.640;8.894;2023-06-22T02:56:00;9.00;;;6.30;;
3959;SDS011;1994;48.640;8.894;2023-06-22T02:58:30;13.70;;;6.93;;
3959;SDS011;1994;48.640;8.894;2023-06-22T03:01:03;8.93;;;7.20;;
3959;SDS011;1994;48.640;8.894;2023-06-22T03:03:30;5.97;;;5.47;;
3959;SDS011;1994;48.640;8.894;2023-06-22T03:05:56;7.83;;;6.87;;
3959;SDS011;1994;48.640;8.894;2023-06-22T03:08:22;7.40;;;6.70;;
3959;SDS011;1994;48.640;8.894;2023-06-22T03:10:48;8.03;;;6.80;;
3959;SDS011;1994;48.640;8.894;2023-06-22T03:13:13;7.83;;;6.97;;
3959;SDS011;1994;48.640;8.894;2023-06-22T03:15:39;9.50;;;6.00;;
3959;SDS011;1994;48.640;8.894;2023-06-22T03:18:05;7.20;;;6.60;;
3959;SDS011;1994;48.640;8.894;2023-06-22T03:20:30;10.80;;;6.97;;
3959;SDS011;1994;48.640;8.894;2023-06-22T03:22:58;12.00;;;6.43;;
3959;SDS011;1994;48.640;8.894;2023-06-22T03:25:24;7.73;;;6.33;;
3959;SDS011;1994;48.640;8.894;2023-06-22T03:27:50;11.13;;;6.30;;
3959;SDS011;1994;48.640;8.894;2023-06-22T03:30:16;6.03;;;5.30;;
3959;SDS011;1994;48.640;8.894;2023-06-22T03:32:42;8.93;;;6.40;;
3959;SDS011;1994;48.640;8.894;2023-06-22T03:35:08;9.30;;;7.50;;
3959;SDS011;1994;48.640;8.894;2023-06-22T03:37:35;8.47;;;6.40;;
3959;SDS011;1994;48.640;8.894;2023-06-22T03:40:01;7.73;;;6.73;;
3959;SDS011;1994;48.640;8.894;2023-06-22T03:42:30;7.10;;;6.40;;
3959;SDS011;1994;48.640;8.894;2023-06-22T03:44:55;9.63;;;5.87;;
3959;SDS011;1994;48.640;8.894;2023-06-22T03:47:22;9.10;;;6.43;;
3959;SDS011;1994;48.640;8.894;2023-06-22T03:49:47;7.27;;;5.83;;
3959;SDS011;1994;48.640;8.894;2023-06-22T03:52:13;10.60;;;6.07;;
3959;SDS011;1994;48.640;8.894;2023-06-22T03:54:39;12.47;;;8.60;;
3959;SDS011;1994;48.640;8.894;2023-06-22T03:57:05;7.93;;;7.07;;
3959;SDS011;1994;48.640;8.894;2023-06-22T03:59:31;9.83;;;7.00;;
3959;SDS011;1994;48.640;8.894;2023-06-22T04:01:57;15.30;;;6.50;;
3959;SDS011;1994;48.640;8.894;2023-06-22T04:04:23;12.60;;;6.90;;
3959;SDS011;1994;48.640;8.894;2023-06-22T04:06:48;10.13;;;6.67;;
3959;SDS011;1994;48.640;8.894;2023-06-22T04:09:14;7.87;;;6.80;;
3959;SDS011;1994;48.640;8.894;2023-06-22T04:11:40;8.27;;;6.90;;
3959;SDS011;1994;48.640;8.894;2023-06-22T04:14:06;10.03;;;6.50;;
3959;SDS011;1994;48.640;8.894;2023-06-22T04:16:31;8.73;;;6.70;;
3959;SDS011;1994;48.640;8.894;2023-06-22T04:18:57;6.50;;;5.90;;
3959;SDS011;1994;48.640;8.894;2023-06-22T04:21:23;8.80;;;7.23;;
3959;SDS011;1994;48.640;8.894;2023-06-22T04:23:49;9.43;;;6.43;;
3959;SDS011;1994;48.640;8.894;2023-06-22T04:26:14;9.53;;;7.53;;
3959;SDS011;1994;48.640;8.894;2023-06-22T04:28:41;8.27;;;6.47;;
3959;SDS011;1994;48.640;8.894;2023-06-22T04:31:06;6.87;;;6.27;;
3959;SDS011;1994;48.640;8.894;2023-06-22T04:33:32;6.93;;;5.83;;
3959;SDS011;1994;48.640;8.894;2023-06-22T04:35:58;10.70;;;7.10;;
3959;SDS011;1994;48.640;8.894;2023-06-22T04:38:28;7.90;;;6.10;;
3959;SDS011;1994;48.640;8.894;2023-06-22T04:40:58;7.70;;;6.07;;
3959;SDS011;1994;48.640;8.894;2023-06-22T04:43:26;8.80;;;6.57;;
3959;SDS011;1994;48.640;8.894;2023-06-22T04:45:55;7.17;;;6.50;;
3959;SDS011;1994;48.640;8.894;2023-06-22T04:48:28;9.83;;;6.70;;
3959;SDS011;1994;48.640;8.894;2023-06-22T04:50:58;7.27;;;6.53;;
3959;SDS011;1994;48.640;8.894;2023-06-22T04:53:28;8.23;;;6.93;;
3959;SDS011;1994;48.640;8.894;2023-06-22T04:55:55;13.10;;;7.50;;
3959;SDS011;1994;48.640;8.894;2023-06-22T04:58:21;7.43;;;6.60;;
3959;SDS011;1994;48.640;8.894;2023-06-22T05:00:47;7.37;;;6.30;;
3959;SDS011;1994;48.640;8.894;2023-06-22T05:03:13;8.67;;;6.10;;
3959;SDS011;1994;48.640;8.894;2023-06-22T05:05:38;9.40;;;6.87;;
3959;SDS011;1994;48.640;8.894;2023-06-22T05:08:04;11.27;;;6.67;;
3959;SDS011;1994;48.640;8.894;2023-06-22T05:10:31;13.20;;;6.50;;
3959;SDS011;1994;48.640;8.894;2023-06-22T05:13:00;7.83;;;6.37;;
3959;SDS011;1994;48.640;8.894;2023-06-22T05:15:26;10.43;;;6.93;;
3959;SDS011;1994;48.640;8.894;2023-06-22T05:17:55;18.33;;;6.50;;
3959;SDS011;1994;48.640;8.894;2023-06-22T05:20:21;7.67;;;6.27;;
3959;SDS011;1994;48.640;8.894;2023-06-22T05:22:47;15.63;;;6.27;;
3959;SDS011;1994;48.640;8.894;2023-06-22T05:25:13;6.70;;;6.10;;
3959;SDS011;1994;48.640;8.894;2023-06-22T05:27:38;7.10;;;6.43;;
3959;SDS011;1994;48.640;8.894;2023-06-22T05:30:07;8.20;;;5.83;;
3959;SDS011;1994;48.640;8.894;2023-06-22T05:32:34;8.80;;;6.13;;
3959;SDS011;1994;48.640;8.894;2023-06-22T05:35:02;6.03;;;5.43;;
3959;SDS011;1994;48.640;8.894;2023-06-22T05:37:28;6.63;;;5.93;;
3959;SDS011;1994;48.640;8.894;2023-06-22T05:39:54;8.57;;;6.83;;
3959;SDS011;1994;48.640;8.894;2023-06-22T05:42:22;8.13;;;6.83;;
3959;SDS011;1994;48.640;8.894;2023-06-22T05:44:48;8.07;;;6.43;;
3959;SDS011;1994;48.640;8.894;2023-06-22T05:47:13;9.97;;;6.40;;
3959;SDS011;1994;48.640;8.894;2023-06-22T05:49:39;6.93;;;6.33;;
3959;SDS011;1994;48.640;8.894;2023-06-22T05:52:05;7.37;;;6.30;;
3959;SDS011;1994;48.640;8.894;2023-06-22T05:54:31;8.60;;;5.57;;
3959;SDS011;1994;48.640;8.894;2023-06-22T05:56:56;10.37;;;5.10;;
3959;SDS011;1994;48.640;8.894;2023-06-22T05:59:22;9.63;;;6.20;;
3959;SDS011;1994;48.640;8.894;2023-06-22T06:01:48;9.37;;;5.90;;
3959;SDS011;1994;48.640;8.894;2023-06-22T06:04:16;10.10;;;6.10;;
3959;SDS011;1994;48.640;8.894;2023-06-22T06:06:43;5.47;;;4.97;;
3959;SDS011;1994;48.640;8.894;2023-06-22T06:09:09;7.20;;;5.73;;
3959;SDS011;1994;48.640;8.894;2023-06-22T06:11:36;6.80;;;5.53;;
3959;SDS011;1994;48.640;8.894;2023-06-22T06:14:02;8.67;;;6.40;;
3959;SDS011;1994;48.640;8.894;2023-06-22T06:16:28;8.20;;;6.07;;
3959;SDS011;1994;48.640;8.894;2023-06-22T06:18:54;6.57;;;5.20;;
3959;SDS011;1994;48.640;8.894;2023-06-22T06:21:21;7.03;;;5.00;;
3959;SDS011;1994;48.640;8.894;2023-06-22T06:23:47;8.13;;;6.20;;
3959;SDS011;1994;48.640;8.894;2023-06-22T06:26:13;6.30;;;5.70;;
3959;SDS011;1994;48.640;8.894;2023-06-22T06:28:41;7.03;;;5.67;;
3959;SDS011;1994;48.640;8.894;2023-06-22T06:31:08;6.30;;;5.23;;
3959;SDS011;1994;48.640;8.894;2023-06-22T06:33:34;6.40;;;5.20;;
3959;SDS011;1994;48.640;8.894;2023-06-22T06:36:01;10.23;;;5.53;;
3959;SDS011;1994;48.640;8.894;2023-06-22T06:38:28;9.87;;;4.40;;
3959;SDS011;1994;48.640;8.894;2023-06-22T06:40:55;7.20;;;5.87;;
3959;SDS011;1994;48.640;8.894;2023-06-22T06:43:21;6.00;;;4.70;;
3959;SDS011;1994;48.640;8.894;2023-06-22T06:45:47;5.80;;;5.30;;
3959;SDS011;1994;48.640;8.894;2023-06-22T06:48:13;5.30;;;4.63;;
3959;SDS011;1994;48.640;8.894;2023-06-22T06:50:39;5.67;;;4.57;;
3959;SDS011;1994;48.640;8.894;2023-06-22T06:53:05;5.13;;;4.57;;
3959;SDS011;1994;48.640;8.894;2023-06-22T06:55:31;6.50;;;4.40;;
3959;SDS011;1994;48.640;8.894;2023-06-22T06:57:58;4.50;;;4.10;;
3959;SDS011;1994;48.640;8.894;2023-06-22T07:00:25;6.40;;;4.90;;
3959;SDS011;1994;48.640;8.894;2023-06-22T07:02:51;5.60;;;5.07;;
3959;SDS011;1994;48.640;8.894;2023-06-22T07:05:17;4.90;;;4.03;;
3959;SDS011;1994;48.640;8.894;2023-06-22T07:07:43;4.50;;;4.10;;
3959;SDS011;1994;48.640;8.894;2023-06-22T07:10:09;4.70;;;4.40;;
3959;SDS011;1994;48.640;8.894;2023-06-22T07:12:35;9.10;;;4.73;;
3959;SDS011;1994;48.640;8.894;2023-06-22T07:15:04;6.37;;;3.87;;
3959;SDS011;1994;48.640;8.894;2023-06-22T07:17:35;4.07;;;3.70;;
3959;SDS011;1994;48.640;8.894;2023-06-22T07:20:02;5.23;;;4.00;;
3959;SDS011;1994;48.640;8.894;2023-06-22T07:22:35;8.30;;;5.10;;
3959;SDS011;1994;48.640;8.894;2023-06-22T07:25:01;4.23;;;3.93;;
3959;SDS011;1994;48.640;8.894;2023-06-22T07:27:34;5.20;;;4.70;;
3959;SDS011;1994;48.640;8.894;2023-06-22T07:30:08;4.77;;;3.50;;
3959;SDS011;1994;48.640;8.894;2023-06-22T07:32:35;4.10;;;3.80;;
3959;SDS011;1994;48.640;8.894;2023-06-22T07:35:01;8.60;;;4.23;;
3959;SDS011;1994;48.640;8.894;2023-06-22T07:37:28;7.20;;;4.60;;
3959;SDS011;1994;48.640;8.894;2023-06-22T07:39:54;4.73;;;3.90;;
3959;SDS011;1994;48.640;8.894;2023-06-22T07:42:26;6.67;;;4.33;;
3959;SDS011;1994;48.640;8.894;2023-06-22T07:44:53;4.43;;;4.07;;
3959;SDS011;1994;48.640;8.894;2023-06-22T07:47:19;4.67;;;4.27;;
3959;SDS011;1994;48.640;8.894;2023-06-22T07:49:50;13.50;;;4.37;;
3959;SDS011;1994;48.640;8.894;2023-06-22T07:52:15;4.80;;;3.77;;
3959;SDS011;1994;48.640;8.894;2023-06-22T07:54:41;6.97;;;4.70;;
3959;SDS011;1994;48.640;8.894;2023-06-22T07:57:07;5.87;;;3.80;;
3959;SDS011;1994;48.640;8.894;2023-06-22T07:59:32;5.50;;;4.10;;
3959;SDS011;1994;48.640;8.894;2023-06-22T08:01:58;6.50;;;4.40;;
3959;SDS011;1994;48.640;8.894;2023-06-22T08:04:24;3.73;;;3.43;;
3959;SDS011;1994;48.640;8.894;2023-06-22T08:06:52;5.10;;;3.80;;
3959;SDS011;1994;48.640;8.894;2023-06-22T08:09:18;4.63;;;4.20;;
3959;SDS011;1994;48.640;8.894;2023-06-22T08:11:44;4.57;;;4.17;;
3959;SDS011;1994;48.640;8.894;2023-06-22T08:14:10;5.13;;;4.07;;
3959;SDS011;1994;48.640;8.894;2023-06-22T08:16:35;6.40;;;4.23;;
3959;SDS011;1994;48.640;8.894;2023-06-22T08:19:01;7.17;;;4.00;;
3959;SDS011;1994;48.640;8.894;2023-06-22T08:21:27;10.73;;;3.83;;
3959;SDS011;1994;48.640;8.894;2023-06-22T08:23:53;3.90;;;3.57;;
3959;SDS011;1994;48.640;8.894;2023-06-22T08:26:18;5.20;;;4.70;;
3959;SDS011;1994;48.640;8.894;2023-06-22T08:28:45;8.63;;;4.53;;
3959;SDS011;1994;48.640;8.894;2023-06-22T08:31:10;7.30;;;4.70;;
3959;SDS011;1994;48.640;8.894;2023-06-22T08:33:37;10.53;;;4.40;;
3959;SDS011;1994;48.640;8.894;2023-06-22T08:36:03;4.67;;;4.27;;
3959;SDS011;1994;48.640;8.894;2023-06-22T08:38:31;8.30;;;4.83;;
3959;SDS011;1994;48.640;8.894;2023-06-22T08:40:56;5.97;;;4.13;;
3959;SDS011;1994;48.640;8.894;2023-06-22T08:43:22;6.63;;;4.57;;
3959;SDS011;1994;48.640;8.894;2023-06-22T08:45:48;5.73;;;5.23;;
3959;SDS011;1994;48.640;8.894;2023-06-22T08:48:14;9.07;;;3.80;;
3959;SDS011;1994;48.640;8.894;2023-06-22T08:50:39;5.50;;;5.00;;
3959;SDS011;1994;48.640;8.894;2023-06-22T08:53:05;7.50;;;4.13;;
3959;SDS011;1994;48.640;8.894;2023-06-22T08:55:31;7.03;;;4.70;;
3959;SDS011;1994;48.640;8.894;2023-06-22T08:57:57;5.93;;;4.67;;
3959;SDS011;1994;48.640;8.894;2023-06-22T09:00:22;9.97;;;4.97;;
3959;SDS011;1994;48.640;8.894;2023-06-22T09:02:48;6.80;;;4.80;;
3959;SDS011;1994;48.640;8.894;2023-06-22T09:05:14;6.03;;;4.03;;
3959;SDS011;1994;48.640;8.894;2023-06-22T09:07:40;9.93;;;4.37;;
3959;SDS011;1994;48.640;8.894;2023-06-22T09:10:07;7.37;;;4.13;;
3959;SDS011;1994;48.640;8.894;2023-06-22T09:12:33;6.43;;;3.73;;
3959;SDS011;1994;48.640;8.894;2023-06-22T09:14:59;7.80;;;4.13;;
3959;SDS011;1994;48.640;8.894;2023-06-22T09:17:25;10.43;;;4.50;;
3959;SDS011;1994;48.640;8.894;2023-06-22T09:19:52;4.60;;;4.00;;
3959;SDS011;1994;48.640;8.894;2023-06-22T09:22:18;7.70;;;4.60;;
3959;SDS011;1994;48.640;8.894;2023-06-22T09:24:44;8.30;;;4.90;;
3959;SDS011;1994;48.640;8.894;2023-06-22T09:27:09;13.43;;;4.47;;
3959;SDS011;1994;48.640;8.894;2023-06-22T09:29:35;6.00;;;4.30;;
3959;SDS011;1994;48.640;8.894;2023-06-22T09:32:01;5.03;;;4.27;;
3959;SDS011;1994;48.640;8.894;2023-06-22T09:34:27;6.17;;;4.47;;
3959;SDS011;1994;48.640;8.894;2023-06-22T09:36:52;12.53;;;4.73;;
3959;SDS011;1994;48.640;8.894;2023-06-22T09:39:18;6.60;;;5.00;;
3959;SDS011;1994;48.640;8.894;2023-06-22T09:41:44;5.40;;;4.90;;
3959;SDS011;1994;48.640;8.894;2023-06-22T09:44:10;5.10;;;4.60;;
3959;SDS011;1994;48.640;8.894;2023-06-22T09:46:35;6.00;;;4.23;;
3959;SDS011;1994;48.640;8.894;2023-06-22T09:49:01;5.60;;;4.60;;
3959;SDS011;1994;48.640;8.894;2023-06-22T09:51:27;7.00;;;3.83;;
3959;SDS011;1994;48.640;8.894;2023-06-22T09:53:53;6.07;;;4.20;;
3959;SDS011;1994;48.640;8.894;2023-06-22T09:56:19;7.23;;;4.37;;
3959;SDS011;1994;48.640;8.894;2023-06-22T09:58:45;8.40;;;4.70;;
3959;SDS011;1994;48.640;8.894;2023-06-22T10:01:11;6.63;;;4.53;;
3959;SDS011;1994;48.640;8.894;2023-06-22T10:03:41;4.33;;;3.93;;
3959;SDS011;1994;48.640;8.894;2023-06-22T10:06:07;11.53;;;3.83;;
3959;SDS011;1994;48.640;8.894;2023-06-22T10:08:34;5.77;;;4.33;;
3959;SDS011;1994;48.640;8.894;2023-06-22T10:11:00;5.30;;;4.27;;
3959;SDS011;1994;48.640;8.894;2023-06-22T10:13:26;6.83;;;4.40;;
3959;SDS011;1994;48.640;8.894;2023-06-22T10:15:52;6.43;;;4.73;;
3959;SDS011;1994;48.640;8.894;2023-06-22T10:18:18;5.23;;;4.73;;
3959;SDS011;1994;48.640;8.894;2023-06-22T10:20:48;5.00;;;3.80;;
3959;SDS011;1994;48.640;8.894;2023-06-22T10:23:16;4.43;;;4.03;;
3959;SDS011;1994;48.640;8.894;2023-06-22T10:25:43;5.57;;;4.20;;
3959;SDS011;1994;48.640;8.894;2023-06-22T10:28:09;5.67;;;4.10;;
3959;SDS011;1994;48.640;8.894;2023-06-22T10:30:34;6.60;;;4.40;;
3959;SDS011;1994;48.640;8.894;2023-06-22T10:33:00;10.60;;;5.20;;
3959;SDS011;1994;48.640;8.894;2023-06-22T10:35:26;6.00;;;4.53;;
3959;SDS011;1994;48.640;8.894;2023-06-22T10:37:52;6.70;;;4.57;;
3959;SDS011;1994;48.640;8.894;2023-06-22T10:40:19;9.73;;;5.20;;
3959;SDS011;1994;48.640;8.894;2023-06-22T10:42:45;5.70;;;4.50;;
3959;SDS011;1994;48.640;8.894;2023-06-22T10:45:11;7.33;;;4.13;;
3959;SDS011;1994;48.640;8.894;2023-06-22T10:47:36;7.33;;;4.23;;
3959;SDS011;1994;48.640;8.894;2023-06-22T10:50:02;8.67;;;4.23;;
3959;SDS011;1994;48.640;8.894;2023-06-22T10:52:29;8.03;;;4.50;;
3959;SDS011;1994;48.640;8.894;2023-06-22T10:54:55;7.07;;;4.27;;
3959;SDS011;1994;48.640;8.894;2023-06-22T10:57:21;8.23;;;4.17;;
3959;SDS011;1994;48.640;8.894;2023-06-22T10:59:47;7.80;;;4.40;;
3959;SDS011;1994;48.640;8.894;2023-06-22T11:02:13;16.13;;;4.80;;
3959;SDS011;1994;48.640;8.894;2023-06-22T11:04:38;6.13;;;4.53;;
3959;SDS011;1994;48.640;8.894;2023-06-22T11:07:04;5.20;;;4.30;;
3959;SDS011;1994;48.640;8.894;2023-06-22T11:09:30;5.63;;;4.30;;
3959;SDS011;1994;48.640;8.894;2023-06-22T11:11:56;6.90;;;4.23;;
3959;SDS011;1994;48.640;8.894;2023-06-22T11:14:24;6.60;;;4.33;;
3959;SDS011;1994;48.640;8.894;2023-06-22T11:16:50;9.83;;;4.20;;
3959;SDS011;1994;48.640;8.894;2023-06-22T11:19:16;6.13;;;4.70;;
3959;SDS011;1994;48.640;8.894;2023-06-22T11:21:42;9.90;;;5.23;;
3959;SDS011;1994;48.640;8.894;2023-06-22T11:24:08;10.77;;;4.67;;
3959;SDS011;1994;48.640;8.894;2023-06-22T11:26:33;8.53;;;5.23;;
3959;SDS011;1994;48.640;8.894;2023-06-22T11:29:00;5.67;;;5.03;;
3959;SDS011;1994;48.640;8.894;2023-06-22T11:31:26;9.07;;;5.07;;
3959;SDS011;1994;48.640;8.894;2023-06-22T11:33:51;5.17;;;4.67;;
3959;SDS011;1994;48.640;8.894;2023-06-22T11:36:18;5.70;;;4.40;;
3959;SDS011;1994;48.640;8.894;2023-06-22T11:38:44;8.20;;;4.73;;
3959;SDS011;1994;48.640;8.894;2023-06-22T11:41:10;7.53;;;3.80;;
3959;SDS011;1994;48.640;8.894;2023-06-22T11:43:36;10.53;;;6.00;;
3959;SDS011;1994;48.640;8.894;2023-06-22T11:46:02;7.13;;;4.07;;
3959;SDS011;1994;48.640;8.894;2023-06-22T11:48:29;5.87;;;4.40;;
3959;SDS011;1994;48.640;8.894;2023-06-22T11:50:55;6.53;;;4.00;;
3959;SDS011;1994;48.640;8.894;2023-06-22T11:53:21;5.07;;;4.20;;
3959;SDS011;1994;48.640;8.894;2023-06-22T11:55:49;5.50;;;4.00;;
3959;SDS011;1994;48.640;8.894;2023-06-22T11:58:15;8.90;;;4.67;;
3959;SDS011;1994;48.640;8.894;2023-06-22T12:00:41;7.20;;;5.00;;
3959;SDS011;1994;48.640;8.894;2023-06-22T12:03:07;12.00;;;4.67;;
3959;SDS011;1994;48.640;8.894;2023-06-22T12:05:34;7.33;;;4.93;;
3959;SDS011;1994;48.640;8.894;2023-06-22T12:08:00;7.67;;;4.93;;
3959;SDS011;1994;48.640;8.894;2023-06-22T12:10:26;5.03;;;4.53;;
3959;SDS011;1994;48.640;8.894;2023-06-22T12:12:53;10.90;;;4.67;;
3959;SDS011;1994;48.640;8.894;2023-06-22T12:15:19;5.90;;;4.60;;
3959;SDS011;1994;48.640;8.894;2023-06-22T12:17:45;5.10;;;4.60;;
3959;SDS011;1994;48.640;8.894;2023-06-22T12:20:13;8.97;;;4.60;;
3959;SDS011;1994;48.640;8.894;2023-06-22T12:22:39;4.90;;;4.17;;
3959;SDS011;1994;48.640;8.894;2023-06-22T12:25:06;5.43;;;4.07;;
3959;SDS011;1994;48.640;8.894;2023-06-22T12:27:32;7.50;;;4.50;;
3959;SDS011;1994;48.640;8.894;2023-06-22T12:29:59;7.63;;;4.40;;
3959;SDS011;1994;48.640;8.894;2023-06-22T12:32:25;8.93;;;4.80;;
3959;SDS011;1994;48.640;8.894;2023-06-22T12:34:51;6.90;;;3.90;;
3959;SDS011;1994;48.640;8.894;2023-06-22T12:37:17;9.40;;;4.30;;
3959;SDS011;1994;48.640;8.894;2023-06-22T12:39:43;6.50;;;4.70;;
3959;SDS011;1994;48.640;8.894;2023-06-22T12:42:08;13.03;;;5.27;;
3959;SDS011;1994;48.640;8.894;2023-06-22T12:44:37;7.20;;;4.67;;
3959;SDS011;1994;48.640;8.894;2023-06-22T12:47:04;7.03;;;4.27;;
3959;SDS011;1994;48.640;8.894;2023-06-22T12:49:30;7.07;;;4.50;;
3959;SDS011;1994;48.640;8.894;2023-06-22T12:51:56;5.37;;;4.83;;
3959;SDS011;1994;48.640;8.894;2023-06-22T12:54:22;10.10;;;4.30;;
3959;SDS011;1994;48.640;8.894;2023-06-22T12:56:49;5.33;;;4.67;;
3959;SDS011;1994;48.640;8.894;2023-06-22T12:59:15;4.90;;;4.40;;
3959;SDS011;1994;48.640;8.894;2023-06-22T13:01:42;5.20;;;4.13;;
3959;SDS011;1994;48.640;8.894;2023-06-22T13:04:10;6.20;;;4.40;;
3959;SDS011;1994;48.640;8.894;2023-06-22T13:06:39;5.47;;;4.43;;
3959;SDS011;1994;48.640;8.894;2023-06-22T13:09:09;4.60;;;4.20;;
3959;SDS011;1994;48.640;8.894;2023-06-22T13:11:35;9.40;;;4.87;;
3959;SDS011;1994;48.640;8.894;2023-06-22T13:14:01;5.17;;;4.00;;
3959;SDS011;1994;48.640;8.894;2023-06-22T13:16:27;11.30;;;5.23;;
3959;SDS011;1994;48.640;8.894;2023-06-22T13:18:52;12.87;;;4.90;;
3959;SDS011;1994;48.640;8.894;2023-06-22T13:21:18;5.60;;;4.73;;
3959;SDS011;1994;48.640;8.894;2023-06-22T13:23:44;8.27;;;5.70;;
3959;SDS011;1994;48.640;8.894;2023-06-22T13:26:09;7.03;;;4.67;;
3959;SDS011;1994;48.640;8.894;2023-06-22T13:28:35;4.77;;;4.33;;
3959;SDS011;1994;48.640;8.894;2023-06-22T13:31:01;5.23;;;4.73;;
3959;SDS011;1994;48.640;8.894;2023-06-22T13:33:27;11.63;;;4.37;;
3959;SDS011;1994;48.640;8.894;2023-06-22T13:35:52;5.27;;;4.77;;
3959;SDS011;1994;48.640;8.894;2023-06-22T13:38:18;5.30;;;4.43;;
3959;SDS011;1994;48.640;8.894;2023-06-22T13:40:44;10.23;;;5.80;;
3959;SDS011;1994;48.640;8.894;2023-06-22T13:43:10;6.93;;;5.73;;
3959;SDS011;1994;48.640;8.894;2023-06-22T13:45:35;6.10;;;5.00;;
3959;SDS011;1994;48.640;8.894;2023-06-22T13:48:01;6.83;;;4.73;;
3959;SDS011;1994;48.640;8.894;2023-06-22T13:50:27;9.77;;;4.87;;
3959;SDS011;1994;48.640;8.894;2023-06-22T13:52:54;5.50;;;4.90;;
3959;SDS011;1994;48.640;8.894;2023-06-22T13:55:21;7.13;;;4.83;;
3959;SDS011;1994;48.640;8.894;2023-06-22T13:57:48;5.93;;;4.83;;
3959;SDS011;1994;48.640;8.894;2023-06-22T14:00:14;7.77;;;5.00;;
3959;SDS011;1994;48.640;8.894;2023-06-22T14:02:40;8.63;;;4.33;;
3959;SDS011;1994;48.640;8.894;2023-06-22T14:05:06;4.47;;;4.07;;
3959;SDS011;1994;48.640;8.894;2023-06-22T14:07:33;4.77;;;3.37;;
3959;SDS011;1994;48.640;8.894;2023-06-22T14:09:59;5.40;;;3.27;;
3959;SDS011;1994;48.640;8.894;2023-06-22T14:12:25;4.60;;;3.33;;
3959;SDS011;1994;48.640;8.894;2023-06-22T14:14:51;6.80;;;3.30;;
3959;SDS011;1994;48.640;8.894;2023-06-22T14:17:17;6.40;;;2.73;;
3959;SDS011;1994;48.640;8.894;2023-06-22T14:19:48;8.43;;;4.30;;
3959;SDS011;1994;48.640;8.894;2023-06-22T14:22:15;8.10;;;2.80;;
3959;SDS011;1994;48.640;8.894;2023-06-22T14:24:41;6.73;;;2.80;;
3959;SDS011;1994;48.640;8.894;2023-06-22T14:27:06;4.73;;;3.10;;
3959;SDS011;1994;48.640;8.894;2023-06-22T14:29:33;8.00;;;2.90;;
3959;SDS011;1994;48.640;8.894;2023-06-22T14:32:00;4.97;;;2.83;;
3959;SDS011;1994;48.640;8.894;2023-06-22T14:34:26;4.60;;;2.30;;
3959;SDS011;1994;48.640;8.894;2023-06-22T14:36:51;8.33;;;2.53;;
3959;SDS011;1994;48.640;8.894;2023-06-22T14:39:17;4.03;;;2.83;;
3959;SDS011;1994;48.640;8.894;2023-06-22T14:41:43;6.20;;;3.20;;
3959;SDS011;1994;48.640;8.894;2023-06-22T14:44:09;7.40;;;3.10;;
3959;SDS011;1994;48.640;8.894;2023-06-22T14:46:34;5.70;;;2.60;;
3959;SDS011;1994;48.640;8.894;2023-06-22T14:49:00;5.73;;;3.00;;
3959;SDS011;1994;48.640;8.894;2023-06-22T14:51:26;5.80;;;3.13;;
3959;SDS011;1994;48.640;8.894;2023-06-22T14:53:52;3.63;;;2.20;;
3959;SDS011;1994;48.640;8.894;2023-06-22T14:56:18;6.63;;;3.20;;
3959;SDS011;1994;48.640;8.894;2023-06-22T14:58:43;3.20;;;2.10;;
3959;SDS011;1994;48.640;8.894;2023-06-22T15:01:12;4.97;;;2.20;;
3959;SDS011;1994;48.640;8.894;2023-06-22T15:03:39;3.97;;;3.03;;
3959;SDS011;1994;48.640;8.894;2023-06-22T15:06:05;5.27;;;3.00;;
3959;SDS011;1994;48.640;8.894;2023-06-22T15:08:30;8.90;;;3.00;;
3959;SDS011;1994;48.640;8.894;2023-06-22T15:10:59;6.10;;;2.87;;
3959;SDS011;1994;48.640;8.894;2023-06-22T15:13:26;6.20;;;3.40;;
3959;SDS011;1994;48.640;8.894;2023-06-22T15:15:52;9.50;;;3.03;;
3959;SDS011;1994;48.640;8.894;2023-06-22T15:18:18;3.13;;;2.77;;
3959;SDS011;1994;48.640;8.894;2023-06-22T15:20:44;7.13;;;2.70;;